Time;durP1;ratioP1;P1;durP2;ratioP2;P2;SDS_P1;SDS_P2;PMS_P1;PMS_P2;Temp;Humidity;BMP_temperature;BMP_pressure;BME280_temperature;BME280_humidity;BME280_pressure;Samples;Min_cycle;Max_cycle;Signal;HPM_P1;HPM_P2
2022/08/27 00:01:47;;;;;;;;;2.00;2.00;;;;;21.63;50.32;101411.53;5074966;28;58464;-80
2022/08/27 00:04:12;;;;;;;;;2.00;2.00;;;;;21.60;49.79;101412.59;5075304;28;45438;-80
2022/08/27 00:06:38;;;;;;;;;2.00;2.00;;;;;21.58;50.01;101409.19;5056967;28;58167;-80
2022/08/27 00:09:04;;;;;;;;;2.25;2.00;;;;;21.60;49.84;101409.06;5075789;28;45310;-80
2022/08/27 00:11:29;;;;;;;;;2.00;2.00;;;;;21.61;50.32;101416.06;5075871;28;45452;-80
2022/08/27 00:13:55;;;;;;;;;2.00;2.00;;;;;21.60;49.68;101409.06;5074394;28;75507;-80
2022/08/27 00:16:20;;;;;;;;;1.75;1.00;;;;;21.59;50.29;101410.03;5075589;28;45420;-80
2022/08/27 00:18:46;;;;;;;;;4.75;2.00;;;;;21.59;50.33;101404.72;5074405;28;68065;-80
2022/08/27 00:21:12;;;;;;;;;3.00;2.00;;;;;21.58;50.07;101400.38;5057644;28;45446;-80
2022/08/27 00:23:37;;;;;;;;;2.50;2.50;;;;;21.58;49.95;101403.88;5057229;28;48876;-80
2022/08/27 00:26:04;;;;;;;;;4.00;2.00;;;;;21.57;49.98;101406.63;5075480;28;45441;-80
2022/08/27 00:28:30;;;;;;;;;2.00;2.00;;;;;21.55;50.15;101405.88;5075642;28;45364;-80
2022/08/27 00:30:56;;;;;;;;;3.25;2.25;;;;;21.52;51.01;101406.06;5075760;28;45364;-80
2022/08/27 00:33:22;;;;;;;;;2.25;2.25;;;;;21.49;51.03;101408.91;5091303;27;60672;-80
2022/08/27 00:35:48;;;;;;;;;5.50;2.75;;;;;21.45;50.28;101402.97;5077315;27;45373;-80
2022/08/27 00:38:14;;;;;;;;;3.00;3.00;;;;;21.43;50.84;101408.34;5095797;27;45281;-80
2022/08/27 00:40:40;;;;;;;;;5.50;2.00;;;;;21.41;51.04;101407.59;5095777;27;45285;-80
2022/08/27 00:43:05;;;;;;;;;3.75;2.00;;;;;21.41;50.57;101407.59;5095592;27;46368;-80
2022/08/27 00:45:37;;;;;;;;;2.00;2.00;;;;;21.40;50.85;101413.81;5076528;27;72438;-80
2022/08/27 00:48:04;;;;;;;;;2.00;2.00;;;;;21.38;50.72;101413.06;5095321;27;45428;-80
2022/08/27 00:50:40;;;;;;;;;2.00;1.50;;;;;21.38;51.06;101414.88;5079036;27;45894;-80
2022/08/27 00:53:17;;;;;;;;;1.00;1.00;;;;;21.37;51.70;101408.72;5080717;27;46232;-80
2022/08/27 00:55:51;;;;;;;;;2.00;2.00;;;;;21.34;50.90;101408.06;5080631;27;45718;-80
2022/08/27 00:58:22;;;;;;;;;5.00;2.00;;;;;21.35;50.77;101405.31;5098991;27;45424;-80
2022/08/27 01:00:48;;;;;;;;;2.50;2.00;;;;;21.35;50.75;101405.31;5080743;27;45575;-80
2022/08/27 01:03:14;;;;;;;;;2.00;2.00;;;;;21.34;51.06;101402.75;5080150;27;46354;-80
2022/08/27 01:05:42;;;;;;;;;4.00;3.00;;;;;21.30;51.30;101403.91;5080665;27;45413;-80
2022/08/27 01:08:14;;;;;;;;;3.00;2.00;;;;;21.27;51.67;101405.81;5098942;27;45473;-80
2022/08/27 01:10:40;;;;;;;;;1.00;1.00;;;;;21.27;51.16;101404.97;5080483;27;45557;-80
2022/08/27 01:13:07;;;;;;;;;2.50;2.00;;;;;21.25;51.11;101412.16;5098687;27;45343;-80
2022/08/27 01:15:33;;;;;;;;;4.00;3.00;;;;;21.24;52.02;101406.00;5098738;27;45911;-80
2022/08/27 01:17:58;;;;;;;;;2.00;2.00;;;;;21.22;51.45;101418.47;5097463;27;68210;-80
2022/08/27 01:20:29;;;;;;;;;2.25;1.75;;;;;21.20;51.38;101407.16;5080432;27;45473;-80
2022/08/27 01:23:26;;;;;;;;;2.00;2.00;;;;;21.17;51.52;101407.34;5080379;27;46098;-80
2022/08/27 01:25:52;;;;;;;;;2.00;2.00;;;;;21.19;51.62;101415.19;5055085;28;45737;-79
2022/08/27 01:28:18;;;;;;;;;3.00;3.00;;;;;21.20;51.47;101409.78;5055696;28;45338;-80
2022/08/27 01:30:43;;;;;;;;;2.00;2.00;;;;;21.19;52.04;101396.66;5054335;28;66829;-80
2022/08/27 01:33:13;;;;;;;;;2.00;2.00;;;;;21.18;52.22;101403.75;5040171;28;52155;-80
2022/08/27 01:35:39;;;;;;;;;2.00;2.00;;;;;21.19;51.35;101404.59;5035257;28;45598;-80
2022/08/27 01:38:04;;;;;;;;;2.00;2.00;;;;;21.16;51.82;101391.56;5035415;28;45428;-80
2022/08/27 01:40:30;;;;;;;;;4.00;3.00;;;;;21.16;51.37;101403.00;5034320;28;69638;-80
2022/08/27 01:42:56;;;;;;;;;3.00;2.00;;;;;21.17;51.90;101401.19;5034363;28;71179;-80
2022/08/27 01:45:28;;;;;;;;;3.00;3.00;;;;;21.16;51.56;101392.41;5034190;28;67266;-80
2022/08/27 01:47:54;;;;;;;;;2.75;2.00;;;;;21.15;51.83;101389.84;5035181;28;45347;-80
2022/08/27 01:50:26;;;;;;;;;2.25;2.25;;;;;21.15;52.05;101395.16;5034946;28;45415;-79
2022/08/27 01:52:53;;;;;;;;;2.50;2.00;;;;;21.13;51.34;101395.22;5035103;28;46072;-80
2022/08/27 01:55:22;;;;;;;;;2.75;2.00;;;;;21.12;52.24;101400.63;5034760;28;45331;-80
2022/08/27 01:57:48;;;;;;;;;3.00;1.50;;;;;21.11;51.68;101397.13;5035308;28;45515;-80
2022/08/27 02:00:20;;;;;;;;;1.50;1.50;;;;;21.12;51.96;101409.44;5034661;28;45622;-80
2022/08/27 02:02:46;;;;;;;;;4.00;2.00;;;;;21.12;51.64;101395.31;5060581;27;46372;-80
2022/08/27 02:05:12;;;;;;;;;4.00;2.50;;;;;21.11;51.79;101402.44;5097972;27;45353;-80
2022/08/27 02:07:38;;;;;;;;;3.25;3.00;;;;;21.12;51.65;101403.28;5097949;27;45380;-80
2022/08/27 02:10:07;;;;;;;;;4.25;3.00;;;;;21.10;52.53;101390.16;5097899;27;45346;-80
2022/08/27 02:12:32;;;;;;;;;2.75;2.75;;;;;21.09;51.98;101388.44;5097793;27;48313;-80
2022/08/27 02:14:57;;;;;;;;;2.50;2.50;;;;;21.08;52.41;101392.91;5096455;27;71683;-80
2022/08/27 02:17:23;;;;;;;;;5.50;2.00;;;;;21.12;51.87;101395.31;5097020;27;66256;-80
2022/08/27 02:19:48;;;;;;;;;1.00;1.00;;;;;21.15;52.31;101395.97;5097063;27;61273;-80
2022/08/27 02:22:13;;;;;;;;;1.25;1.25;;;;;21.18;51.90;101387.88;5079351;27;45458;-80
2022/08/27 02:24:40;;;;;;;;;3.75;3.00;;;;;21.19;51.74;101392.22;5097786;27;45295;-80
2022/08/27 02:27:06;;;;;;;;;3.00;2.00;;;;;21.17;51.64;101388.81;5079346;27;45396;-79
2022/08/27 02:29:33;;;;;;;;;5.00;2.00;;;;;21.17;51.92;101395.91;5079167;27;45507;-80
2022/08/27 02:32:00;;;;;;;;;3.25;2.50;;;;;21.18;51.96;101393.16;5097361;27;46319;-80
2022/08/27 02:34:26;;;;;;;;;1.25;1.25;;;;;21.17;51.90;101387.94;5078862;27;45378;-79
2022/08/27 02:36:52;;;;;;;;;3.00;1.75;;;;;21.14;52.02;101389.00;5097353;27;45431;-80
2022/08/27 02:39:18;;;;;;;;;2.25;2.00;;;;;21.11;52.04;101391.84;5097500;27;46083;-80
2022/08/27 02:41:43;;;;;;;;;2.00;2.00;;;;;21.11;51.84;101393.66;5078965;27;45703;-80
2022/08/27 02:44:10;;;;;;;;;2.00;2.00;;;;;21.11;52.12;101394.47;5096230;27;66897;-80
2022/08/27 02:46:35;;;;;;;;;2.50;2.00;;;;;21.11;51.88;101391.84;5097185;27;45227;-80
2022/08/27 02:49:01;;;;;;;;;1.75;1.75;;;;;21.11;51.91;101388.34;5079316;27;45355;-80
2022/08/27 02:51:26;;;;;;;;;4.00;2.00;;;;;21.08;51.68;101384.97;5096925;27;47048;-80
2022/08/27 02:53:52;;;;;;;;;2.00;2.00;;;;;21.05;51.82;101379.84;5097074;27;45412;-79
2022/08/27 02:56:17;;;;;;;;;2.25;2.00;;;;;21.04;51.96;101382.59;5097283;27;45339;-80
2022/08/27 02:58:43;;;;;;;;;2.00;1.75;;;;;21.05;52.08;101379.84;5077604;27;67806;-80
2022/08/27 03:01:08;;;;;;;;;1.25;1.25;;;;;21.05;52.40;101377.19;5096543;27;56380;-80
2022/08/27 03:03:33;;;;;;;;;3.50;2.50;;;;;21.05;52.02;101384.28;5095884;27;73304;-79
2022/08/27 03:05:59;;;;;;;;;3.75;2.50;;;;;21.00;52.35;101376.63;5096112;27;65518;-80
2022/08/27 03:08:25;;;;;;;;;1.00;1.00;;;;;21.00;52.11;101370.50;5097025;27;45357;-80
2022/08/27 03:10:51;;;;;;;;;2.25;2.00;;;;;20.96;52.19;101369.00;5078622;27;45524;-80
2022/08/27 03:13:17;;;;;;;;;2.00;2.00;;;;;20.92;51.83;101372.78;5077541;27;45874;-80
2022/08/27 03:15:43;;;;;;;;;3.25;1.75;;;;;20.83;52.22;101367.09;5078942;27;45407;-80
2022/08/27 03:18:17;;;;;;;;;2.00;2.00;;;;;20.79;52.25;101373.53;5096955;27;45228;-80
2022/08/27 03:20:46;;;;;;;;;3.00;1.75;;;;;20.73;52.93;101370.41;5096647;27;46455;-80
2022/08/27 03:23:13;;;;;;;;;2.50;2.50;;;;;20.69;52.60;101372.41;5078461;27;45850;-80
2022/08/27 03:25:42;;;;;;;;;2.00;2.00;;;;;20.67;52.68;101371.63;5097039;27;45400;-80
2022/08/27 03:28:08;;;;;;;;;1.75;1.75;;;;;20.63;53.47;101370.97;5078239;27;45553;-79
2022/08/27 03:30:33;;;;;;;;;2.50;2.50;;;;;20.61;53.67;101377.31;5078199;27;46447;-80
2022/08/27 03:32:59;;;;;;;;;4.00;2.25;;;;;20.56;53.26;101371.41;5096466;27;45357;-80
2022/08/27 03:35:24;;;;;;;;;1.25;1.00;;;;;20.55;53.00;101375.84;5096408;27;45354;-80
2022/08/27 03:37:50;;;;;;;;;2.25;2.25;;;;;20.54;52.82;101376.81;5096344;27;45432;-80
2022/08/27 03:40:16;;;;;;;;;4.00;2.00;;;;;20.54;53.07;101378.59;5096416;27;45587;-80
2022/08/27 03:42:41;;;;;;;;;3.25;3.00;;;;;20.55;52.82;101380.31;5077923;27;45352;-80
2022/08/27 03:45:08;;;;;;;;;2.25;2.00;;;;;20.52;53.16;101376.03;5095427;27;69199;-80
2022/08/27 03:47:34;;;;;;;;;3.25;2.50;;;;;20.50;52.88;101372.63;5096298;27;45379;-80
2022/08/27 03:50:00;;;;;;;;;2.00;2.00;;;;;20.47;53.55;101375.47;5078058;27;46334;-79
2022/08/27 03:52:27;;;;;;;;;3.75;2.25;;;;;20.43;53.38;101368.66;5077905;27;45390;-80
2022/08/27 03:54:52;;;;;;;;;2.00;2.00;;;;;20.41;52.82;101375.84;5096014;27;45380;-80
2022/08/27 03:57:18;;;;;;;;;3.75;2.75;;;;;20.33;53.63;101371.00;5095097;27;69316;-80
2022/08/27 03:59:43;;;;;;;;;3.00;2.00;;;;;20.26;52.88;101367.91;5095133;27;75624;-79
2022/08/27 04:02:08;;;;;;;;;3.75;2.75;;;;;20.23;53.56;101369.88;5095983;27;45236;-80
2022/08/27 04:04:34;;;;;;;;;1.75;1.75;;;;;20.21;53.71;101369.13;5095499;27;62529;-79
2022/08/27 04:06:59;;;;;;;;;1.00;1.00;;;;;20.20;53.65;101372.69;5096430;27;45294;-79
2022/08/27 04:09:25;;;;;;;;;2.75;1.00;;;;;20.20;53.63;101370.03;5096100;27;46254;-80
2022/08/27 04:11:50;;;;;;;;;3.25;3.00;;;;;20.17;54.97;101364.94;5095171;27;45730;-80
2022/08/27 04:14:16;;;;;;;;;2.00;1.50;;;;;20.14;54.14;101368.63;5077310;27;57172;-80
2022/08/27 04:16:42;;;;;;;;;3.50;2.25;;;;;20.14;54.46;101365.13;5096108;27;45364;-80
2022/08/27 04:19:07;;;;;;;;;4.50;3.00;;;;;20.10;54.11;101364.47;5095719;27;46450;-80
2022/08/27 04:21:34;;;;;;;;;2.75;2.75;;;;;20.08;54.41;101358.44;5095859;27;45604;-80
2022/08/27 04:24:00;;;;;;;;;3.00;3.00;;;;;20.10;53.91;101364.47;5096881;27;45419;-79
2022/08/27 04:26:25;;;;;;;;;2.75;2.75;;;;;20.08;54.55;101361.06;5080880;27;45416;-80
2022/08/27 04:28:51;;;;;;;;;2.25;2.25;;;;;20.07;54.12;101359.34;5098767;27;69628;-79
2022/08/27 04:31:17;;;;;;;;;3.50;3.00;;;;;20.07;54.48;101362.00;5098997;27;59562;-79
2022/08/27 04:33:43;;;;;;;;;3.00;3.00;;;;;20.07;54.47;101357.56;5099420;27;45380;-80
2022/08/27 04:36:09;;;;;;;;;2.25;2.00;;;;;20.08;54.11;101355.78;5099265;27;45893;-80
2022/08/27 04:38:35;;;;;;;;;2.50;2.00;;;;;20.08;54.08;101356.63;5099198;27;45440;-79
2022/08/27 04:41:18;;;;;;;;;5.50;3.00;;;;;20.04;54.09;101356.88;5080613;27;45409;-80
2022/08/27 04:43:44;;;;;;;;;3.50;3.00;;;;;19.98;54.18;101349.31;5099262;27;45412;-80
2022/08/27 04:46:09;;;;;;;;;5.50;3.00;;;;;19.92;54.49;101364.59;5099327;27;45405;-80
2022/08/27 04:48:35;;;;;;;;;3.75;2.75;;;;;19.90;54.02;101353.25;5098188;27;75823;-80
2022/08/27 04:51:00;;;;;;;;;2.50;2.50;;;;;19.90;54.31;101352.41;5098860;27;53034;-79
2022/08/27 04:53:26;;;;;;;;;2.25;2.00;;;;;19.88;54.53;101349.03;5097942;27;67149;-79
2022/08/27 04:55:53;;;;;;;;;3.00;3.00;;;;;19.85;54.92;101351.81;5098913;27;45343;-79
2022/08/27 04:58:19;;;;;;;;;3.50;3.00;;;;;19.84;55.90;101350.16;5098990;27;46194;-80
2022/08/27 05:00:58;;;;;;;;;2.50;2.00;;;;;19.82;54.50;101352.03;5098972;27;45838;-80
2022/08/27 05:03:24;;;;;;;;;4.25;3.00;;;;;19.76;54.35;101353.22;5098997;27;45406;-80
2022/08/27 05:05:51;;;;;;;;;4.00;3.50;;;;;19.70;54.56;101359.66;5099166;27;45459;-80
2022/08/27 05:08:17;;;;;;;;;3.00;3.00;;;;;19.64;54.98;101361.81;5098512;27;46272;-80
2022/08/27 05:10:45;;;;;;;;;5.00;2.25;;;;;19.62;54.93;101367.19;5080406;27;45302;-79
2022/08/27 05:13:11;;;;;;;;;4.00;3.75;;;;;19.61;54.63;101365.47;5099050;27;45374;-79
2022/08/27 05:15:36;;;;;;;;;4.25;2.00;;;;;19.62;54.78;101367.19;5099063;27;45480;-80
2022/08/27 05:18:02;;;;;;;;;4.00;3.00;;;;;19.60;55.20;101366.41;5098538;27;45348;-80
2022/08/27 05:20:29;;;;;;;;;3.50;3.25;;;;;19.54;55.14;101367.63;5098773;27;45434;-80
2022/08/27 05:22:55;;;;;;;;;3.00;3.00;;;;;19.52;55.00;101372.16;5080212;27;45337;-80
2022/08/27 05:25:21;;;;;;;;;4.00;2.75;;;;;19.50;55.28;101375.78;5098746;27;45456;-80
2022/08/27 05:27:46;;;;;;;;;3.25;3.25;;;;;19.49;55.28;101384.66;5098486;27;46603;-80
2022/08/27 05:30:12;;;;;;;;;5.25;3.00;;;;;19.49;55.99;101385.50;5098469;27;45324;-80
2022/08/27 05:32:38;;;;;;;;;3.75;3.25;;;;;19.53;55.53;101388.81;5098303;27;45396;-80
2022/08/27 05:35:04;;;;;;;;;3.00;3.00;;;;;19.57;55.22;101389.50;5098247;27;45609;-80
2022/08/27 05:37:32;;;;;;;;;2.50;2.00;;;;;19.58;55.40;101385.94;5097520;27;46147;-80
2022/08/27 05:39:58;;;;;;;;;10.25;4.00;;;;;19.58;55.37;101388.59;5098063;27;45333;-80
2022/08/27 05:42:24;;;;;;;;;4.00;4.00;;;;;19.56;55.07;101385.16;5098482;27;45226;-79
2022/08/27 05:44:49;;;;;;;;;4.00;2.50;;;;;19.50;54.87;101394.28;5097499;27;64809;-80
2022/08/27 05:47:15;;;;;;;;;7.25;2.75;;;;;19.43;55.08;101393.78;5096964;27;75571;-80
2022/08/27 05:49:40;;;;;;;;;5.00;3.75;;;;;19.41;55.56;101387.75;5098375;27;45581;-80
2022/08/27 05:52:12;;;;;;;;;4.75;3.00;;;;;19.44;55.39;101392.81;5097846;27;45293;-81
2022/08/27 05:54:38;;;;;;;;;3.00;3.00;;;;;19.44;55.50;101384.91;5098237;27;45801;-79
2022/08/27 05:57:05;;;;;;;;;2.50;2.50;;;;;19.46;55.46;101390.94;5097952;27;45436;-79
2022/08/27 06:02:14;;;;;;;;;5.00;2.50;;;;;19.47;56.15;101392.66;5098143;27;45293;-80
2022/08/27 06:04:39;;;;;;;;;3.75;3.00;;;;;19.48;56.47;101388.22;5097952;27;45297;-80
2022/08/27 06:07:08;;;;;;;;;3.50;3.50;;;;;19.51;55.49;101388.91;5079154;27;46379;-79
2022/08/27 06:09:33;;;;;;;;;6.00;3.00;;;;;19.49;55.26;101380.22;5097921;27;45974;-79
2022/08/27 06:11:59;;;;;;;;;2.50;2.00;;;;;19.49;55.97;101380.22;5098093;27;45774;-79
2022/08/27 06:14:25;;;;;;;;;6.25;4.00;;;;;19.51;56.17;101380.97;5097968;27;45374;-79
2022/08/27 06:16:50;;;;;;;;;3.00;2.25;;;;;19.54;55.32;101382.63;5097599;27;45521;-80
2022/08/27 06:19:16;;;;;;;;;5.50;3.00;;;;;19.57;55.57;101381.59;5097820;27;45417;-79
2022/08/27 06:21:42;;;;;;;;;4.75;3.00;;;;;19.59;55.21;101379.72;5096549;27;66317;-79
2022/08/27 06:24:10;;;;;;;;;5.75;3.00;;;;;19.64;55.44;101382.94;5078438;27;67921;-79
2022/08/27 06:26:36;;;;;;;;;5.00;4.00;;;;;19.63;55.31;101382.09;5097451;27;46532;-80
2022/08/27 06:29:05;;;;;;;;;6.75;5.75;;;;;19.63;55.40;101387.38;5097151;27;52948;-80
2022/08/27 06:31:31;;;;;;;;;5.75;2.50;;;;;19.64;55.29;101391.72;5097675;27;45488;-80
2022/08/27 06:33:59;;;;;;;;;5.75;4.00;;;;;19.66;55.30;101391.63;5079394;27;45473;-80
2022/08/27 06:36:25;;;;;;;;;5.75;4.00;;;;;19.65;55.23;101396.06;5096806;27;45380;-80
2022/08/27 06:38:50;;;;;;;;;5.50;4.00;;;;;19.63;55.23;101400.59;5097552;27;45319;-79
2022/08/27 06:41:19;;;;;;;;;6.00;4.50;;;;;19.63;55.02;101400.59;5097527;27;45451;-80
2022/08/27 06:43:44;;;;;;;;;8.00;4.00;;;;;19.63;55.15;101397.94;5079309;27;45448;-80
2022/08/27 06:46:16;;;;;;;;;4.00;3.00;;;;;19.65;55.25;101404.00;5097316;27;46039;-80
2022/08/27 06:48:43;;;;;;;;;3.50;3.25;;;;;19.67;55.13;101399.47;5096294;27;45652;-79
2022/08/27 06:51:11;;;;;;;;;8.25;4.00;;;;;19.71;56.03;101398.34;5096861;27;45415;-80
2022/08/27 06:53:38;;;;;;;;;6.25;3.75;;;;;19.75;55.63;101395.56;5078920;27;45357;-80
2022/08/27 06:56:04;;;;;;;;;4.75;4.75;;;;;19.82;55.10;101405.69;5096898;27;45345;-79
2022/08/27 06:58:29;;;;;;;;;4.00;4.00;;;;;19.85;55.68;101402.88;5097144;27;45311;-80
2022/08/27 07:00:55;;;;;;;;;4.25;4.25;;;;;19.90;54.80;101407.91;5097231;27;45359;-80
2022/08/27 07:03:20;;;;;;;;;7.25;5.25;;;;;19.90;54.99;101408.75;5078211;27;62550;-80
2022/08/27 07:05:45;;;;;;;;;6.50;5.00;;;;;19.90;54.94;101414.03;5096012;27;66033;-80
2022/08/27 07:08:11;;;;;;;;;6.75;5.25;;;;;19.92;54.89;101417.44;5096399;27;64177;-80
2022/08/27 07:10:36;;;;;;;;;6.75;4.00;;;;;19.96;54.95;101415.47;5096277;27;62399;-80
2022/08/27 07:13:02;;;;;;;;;10.75;6.00;;;;;19.98;55.20;101418.88;5096933;27;45329;-80
2022/08/27 07:15:28;;;;;;;;;5.00;5.00;;;;;20.00;54.85;101424.94;5097018;27;45904;-80
2022/08/27 07:17:53;;;;;;;;;5.50;5.00;;;;;20.04;55.04;101421.16;5096866;27;45413;-80
2022/08/27 07:20:19;;;;;;;;;5.50;5.25;;;;;20.08;54.87;101420.03;5096299;27;49295;-80
2022/08/27 07:22:46;;;;;;;;;8.00;4.25;;;;;20.16;55.25;101430.16;5096773;27;45384;-80
2022/08/27 07:25:15;;;;;;;;;6.00;5.00;;;;;20.22;55.50;101424.50;5096657;27;45467;-80
2022/08/27 07:27:40;;;;;;;;;6.25;5.25;;;;;20.28;54.75;101425.94;5078489;27;45670;-80
2022/08/27 07:30:09;;;;;;;;;4.50;4.00;;;;;20.33;54.81;101423.88;5095970;27;60052;-80
2022/08/27 07:32:34;;;;;;;;;6.00;5.00;;;;;20.41;55.14;101416.38;5096572;27;45415;-80
2022/08/27 07:35:00;;;;;;;;;6.75;5.00;;;;;20.49;54.30;101418.56;5095122;27;71399;-80
2022/08/27 07:37:25;;;;;;;;;4.00;4.00;;;;;20.55;54.44;101423.47;5096424;27;45360;-80
2022/08/27 07:39:50;;;;;;;;;4.50;4.50;;;;;20.61;54.79;101427.56;5095621;27;67109;-80
2022/08/27 07:44:59;;;;;;;;;7.50;6.75;;;;;20.77;54.36;101430.16;5096422;27;45494;-80
2022/08/27 07:47:25;;;;;;;;;5.75;5.00;;;;;20.77;53.89;101425.69;5094966;27;72828;-80
2022/08/27 07:49:50;;;;;;;;;9.00;7.00;;;;;20.81;54.03;101429.00;5078199;27;45361;-80
2022/08/27 07:52:16;;;;;;;;;7.75;6.75;;;;;20.82;53.55;101428.91;5096646;27;45491;-80
2022/08/27 07:54:42;;;;;;;;;6.25;5.50;;;;;20.85;54.13;101430.50;5096007;27;46224;-80
2022/08/27 07:57:10;;;;;;;;;9.50;7.00;;;;;20.89;53.67;101437.31;5095785;27;59147;-80
2022/08/27 07:59:36;;;;;;;;;7.50;5.25;;;;;20.93;53.52;101430.91;5082201;27;45377;-80
2022/08/27 08:02:02;;;;;;;;;6.00;5.00;;;;;20.98;53.51;101427.97;5102802;27;45332;-80
2022/08/27 08:04:28;;;;;;;;;9.00;7.00;;;;;21.00;53.45;101428.72;5102727;27;45375;-80
2022/08/27 08:06:54;;;;;;;;;4.75;4.00;;;;;21.02;53.82;101438.28;5103030;27;45417;-80
2022/08/27 08:09:21;;;;;;;;;6.75;5.00;;;;;21.08;53.35;101435.25;5103043;27;45444;-80
2022/08/27 08:11:46;;;;;;;;;7.00;5.00;;;;;21.14;53.58;101441.94;5103091;27;45377;-80
2022/08/27 08:14:12;;;;;;;;;5.50;4.75;;;;;21.20;53.33;101436.25;5102989;27;45640;-80
2022/08/27 08:16:37;;;;;;;;;7.25;6.00;;;;;21.27;52.94;101437.59;5102431;27;45380;-80
2022/08/27 08:19:02;;;;;;;;;4.25;4.25;;;;;21.31;53.49;101440.06;5102231;27;65827;-80
2022/08/27 08:21:28;;;;;;;;;4.75;4.75;;;;;21.36;53.09;101436.16;5102939;27;45412;-80
2022/08/27 08:23:53;;;;;;;;;5.50;4.50;;;;;21.43;53.41;101436.59;5102834;27;46085;-80
2022/08/27 08:26:19;;;;;;;;;7.00;4.75;;;;;21.51;52.74;101438.78;5102624;27;45310;-80
2022/08/27 08:28:44;;;;;;;;;6.75;5.00;;;;;21.58;52.60;101442.75;5101890;27;67468;-80
2022/08/27 08:31:10;;;;;;;;;6.00;4.50;;;;;21.63;52.39;101443.31;5083684;27;57683;-80
2022/08/27 08:33:36;;;;;;;;;6.25;5.00;;;;;21.67;52.67;101438.66;5102385;27;46322;-80
2022/08/27 08:36:12;;;;;;;;;7.25;5.00;;;;;21.73;53.06;101446.22;5102441;27;45521;-80
2022/08/27 08:38:38;;;;;;;;;6.00;3.75;;;;;21.79;52.10;101441.38;5102670;27;45448;-80
2022/08/27 08:41:05;;;;;;;;;4.25;4.25;;;;;21.85;51.73;101440.13;5084289;27;45365;-80
2022/08/27 08:43:38;;;;;;;;;6.00;4.75;;;;;21.86;51.86;101441.84;5084092;27;45524;-80
2022/08/27 08:46:24;;;;;;;;;5.00;4.75;;;;;21.89;51.16;101441.63;5083864;27;45401;-80
2022/08/27 08:48:54;;;;;;;;;5.00;5.00;;;;;21.89;51.11;101438.97;5102544;27;45427;-80
2022/08/27 08:51:37;;;;;;;;;5.50;4.25;;;;;21.88;50.41;101437.28;5102519;27;45492;-80
2022/08/27 08:54:06;;;;;;;;;6.50;4.00;;;;;21.89;50.54;101438.97;5084069;27;46423;-80
2022/08/27 08:56:46;;;;;;;;;6.00;4.00;;;;;21.93;50.57;101432.50;5083933;27;45815;-79
2022/08/27 08:59:33;;;;;;;;;4.00;4.00;;;;;21.97;50.31;101436.69;5102388;27;45428;-80
2022/08/27 09:01:59;;;;;;;;;2.00;2.00;;;;;22.02;50.16;101426.59;5102061;27;45507;-80
2022/08/27 09:04:25;;;;;;;;;4.00;3.50;;;;;22.09;50.08;101437.66;5066714;27;47508;-80
2022/08/27 09:06:57;;;;;;;;;4.25;2.75;;;;;22.15;49.67;101434.59;5102439;27;45380;-80
2022/08/27 09:09:58;;;;;;;;;5.00;3.25;;;;;22.20;49.57;101434.28;5084018;27;45515;-80
2022/08/27 09:12:29;;;;;;;;;4.75;3.00;;;;;22.28;49.03;101433.81;5080170;27;45486;-80
2022/08/27 09:15:03;;;;;;;;;4.50;4.25;;;;;22.36;48.87;101439.44;5098716;27;46325;-80
2022/08/27 09:17:28;;;;;;;;;4.50;3.75;;;;;22.38;48.78;101443.69;5080311;27;45326;-80
2022/08/27 09:19:53;;;;;;;;;5.00;4.00;;;;;22.39;48.53;101439.22;5079785;27;61462;-80
2022/08/27 09:22:31;;;;;;;;;5.50;4.25;;;;;22.44;48.70;101442.44;5098933;27;45297;-80
2022/08/27 09:24:59;;;;;;;;;5.50;5.00;;;;;22.50;48.77;101438.50;5098716;27;45618;-81
2022/08/27 09:27:24;;;;;;;;;4.00;3.75;;;;;22.54;48.79;101432.03;5098570;27;45318;-80
2022/08/27 09:29:52;;;;;;;;;4.00;3.00;;;;;22.62;48.20;101440.31;5097097;27;68717;-80
2022/08/27 09:32:26;;;;;;;;;3.25;3.25;;;;;22.70;48.07;101434.50;5098559;27;45388;-80
2022/08/27 09:34:55;;;;;;;;;4.25;3.75;;;;;22.75;46.95;101435.88;5079888;27;45602;-81
2022/08/27 09:37:31;;;;;;;;;4.75;2.50;;;;;22.77;46.65;101439.28;5098492;27;45298;-81
2022/08/27 09:40:16;;;;;;;;;4.00;4.00;;;;;22.82;46.72;101438.94;5098364;27;45566;-81
2022/08/27 09:42:47;;;;;;;;;5.00;4.00;;;;;22.85;46.19;101441.38;5080083;27;45388;-81
2022/08/27 09:45:17;;;;;;;;;3.00;2.75;;;;;22.88;46.15;101441.19;5079985;27;45725;-81
2022/08/27 09:48:10;;;;;;;;;4.75;2.00;;;;;22.93;46.84;101448.81;5098441;27;45411;-81
2022/08/27 09:50:42;;;;;;;;;4.50;2.25;;;;;23.01;46.35;101443.78;5077448;27;45675;-81
2022/08/27 09:53:33;;;;;;;;;3.75;3.75;;;;;23.11;45.85;101438.75;5079688;27;45433;-81
2022/08/27 09:56:01;;;;;;;;;4.75;3.75;;;;;23.17;46.23;101436.47;5079395;27;45465;-81
2022/08/27 09:58:31;;;;;;;;;3.25;3.25;;;;;23.25;45.58;101448.38;5079579;27;45593;-81
2022/08/27 10:01:03;;;;;;;;;2.75;2.50;;;;;23.34;46.18;101443.25;5079952;27;45404;-81
2022/08/27 10:03:28;;;;;;;;;3.25;3.25;;;;;23.44;45.44;101445.22;5098223;27;45489;-81
2022/08/27 10:05:54;;;;;;;;;4.50;3.75;;;;;23.55;44.90;101440.84;5097680;27;46458;-81
2022/08/27 10:08:37;;;;;;;;;4.25;3.25;;;;;23.66;44.30;101434.78;5097984;27;45706;-81
2022/08/27 10:11:09;;;;;;;;;4.50;3.50;;;;;23.72;43.57;101436.97;5079803;27;45487;-81
2022/08/27 10:14:04;;;;;;;;;3.25;2.00;;;;;23.76;43.80;101442.91;5079525;27;45397;-81
2022/08/27 10:16:49;;;;;;;;;1.50;1.50;;;;;23.78;43.03;101438.31;5079457;27;45370;-81
2022/08/27 10:19:20;;;;;;;;;4.00;3.50;;;;;23.84;42.57;101442.38;5097747;27;45432;-81
2022/08/27 10:21:48;;;;;;;;;2.75;2.75;;;;;23.84;42.47;101435.22;5097567;27;45503;-80
2022/08/27 10:24:17;;;;;;;;;3.75;3.00;;;;;23.86;42.28;101429.81;5097931;27;45418;-81
2022/08/27 10:26:49;;;;;;;;;4.00;2.00;;;;;23.88;42.48;101434.03;5097482;27;46360;-81
2022/08/27 10:29:27;;;;;;;;;3.75;3.00;;;;;23.95;42.42;101432.63;5078901;27;45818;-81
2022/08/27 10:32:08;;;;;;;;;3.75;2.25;;;;;24.06;42.38;101436.31;5079222;27;45474;-81
2022/08/27 10:35:05;;;;;;;;;3.00;3.00;;;;;24.15;41.64;101436.44;5079127;27;45414;-81
2022/08/27 10:37:40;;;;;;;;;3.00;3.00;;;;;24.22;41.23;101428.88;5097525;27;45680;-81
2022/08/27 10:40:16;;;;;;;;;6.25;4.75;;;;;24.26;42.17;101426.81;5097393;27;45290;-81
2022/08/27 10:42:49;;;;;;;;;2.25;2.25;;;;;24.36;40.20;101433.13;5078748;27;45382;-81
2022/08/27 10:45:23;;;;;;;;;7.25;2.50;;;;;24.42;40.40;101431.81;5097370;27;45330;-81
2022/08/27 10:48:05;;;;;;;;;2.75;2.75;;;;;24.53;39.73;101429.19;5097320;27;46329;-81
2022/08/27 10:50:48;;;;;;;;;4.00;3.75;;;;;24.67;40.04;101431.66;5097139;27;45784;-81
2022/08/27 10:53:41;;;;;;;;;3.00;2.75;;;;;24.75;39.25;101416.91;5079062;27;45350;-81
2022/08/27 10:56:09;;;;;;;;;3.00;3.00;;;;;24.82;39.19;101420.78;5096909;27;45415;-81
2022/08/27 10:58:58;;;;;;;;;8.00;7.00;;;;;24.89;39.06;101422.81;5078719;27;46485;-81
2022/08/27 11:01:35;;;;;;;;;4.50;3.00;;;;;24.97;38.79;101411.56;5097074;27;45769;-81
2022/08/27 11:04:08;;;;;;;;;4.25;3.00;;;;;25.08;39.18;101414.22;5097243;27;45406;-81
2022/08/27 11:06:40;;;;;;;;;4.50;4.00;;;;;25.28;38.96;101411.81;5096956;27;45530;-81
2022/08/27 11:09:36;;;;;;;;;4.00;4.00;;;;;25.45;39.05;101410.44;5078665;27;46511;-81
2022/08/27 11:12:06;;;;;;;;;4.00;4.00;;;;;25.54;38.33;101398.16;5078391;27;45287;-81
2022/08/27 11:14:42;;;;;;;;;3.00;3.00;;;;;25.61;38.21;101394.91;5078677;27;45428;-81
2022/08/27 11:17:30;;;;;;;;;7.50;4.00;;;;;25.68;38.75;101401.38;5078783;27;45390;-81
2022/08/27 11:20:03;;;;;;;;;4.50;4.00;;;;;25.81;38.50;101403.06;5096124;27;45673;-81
2022/08/27 11:22:36;;;;;;;;;3.75;3.50;;;;;25.93;37.73;101403.88;5078624;27;45293;-81
2022/08/27 11:25:10;;;;;;;;;5.75;3.25;;;;;26.06;37.48;101388.56;5078171;27;45335;-81
2022/08/27 11:27:36;;;;;;;;;4.50;3.50;;;;;26.18;36.66;101392.00;5096791;27;45479;-81
2022/08/27 11:30:06;;;;;;;;;3.25;2.25;;;;;26.28;36.34;101392.91;5077339;27;75594;-81
2022/08/27 11:32:36;;;;;;;;;3.50;3.00;;;;;26.49;36.36;101384.03;5078055;27;46175;-81
2022/08/27 11:35:10;;;;;;;;;4.50;3.25;;;;;26.81;35.82;101381.25;5095802;27;45384;-81
2022/08/27 11:38:03;;;;;;;;;4.00;2.75;;;;;27.30;36.38;101382.25;5096835;27;45381;-81